Time;durP1;ratioP1;P1;durP2;ratioP2;P2;SDS_P1;SDS_P2;PMS_P1;PMS_P2;Temp;Humidity;BMP_temperature;BMP_pressure;BME280_temperature;BME280_humidity;BME280_pressure;Samples;Min_cycle;Max_cycle;Signal;HPM_P1;HPM_P2
2023/10/14 00:01:26;;;;;;;15.40;7.87;;;19.40;99.90;;;;;;6045255;23;20389;-76
2023/10/14 00:03:56;;;;;;;10.40;7.20;;;19.40;99.90;;;;;;6065671;23;20409;-76
2023/10/14 00:06:22;;;;;;;10.43;7.67;;;19.40;99.90;;;;;;6041405;23;20388;-76
2023/10/14 00:09:36;;;;;;;11.23;7.40;;;19.50;99.90;;;;;;6042460;23;20365;-77
2023/10/14 00:11:40;;;;;;;14.60;7.70;;;19.50;99.90;;;;;;6030555;23;20381;-77
2023/10/14 00:14:16;;;;;;;11.80;6.63;;;19.50;99.90;;;;;;6065974;23;20397;-75
2023/10/14 00:16:50;;;;;;;13.30;6.70;;;19.50;99.90;;;;;;6044271;23;20397;-77
2023/10/14 00:19:21;;;;;;;13.47;6.63;;;19.50;99.90;;;;;;6062619;23;20400;-75
2023/10/14 00:21:48;;;;;;;12.70;7.37;;;19.60;99.90;;;;;;6062587;23;20362;-77
2023/10/14 00:24:27;;;;;;;12.43;6.30;;;19.60;99.90;;;;;;6062021;23;20401;-76
2023/10/14 00:26:55;;;;;;;10.87;7.00;;;19.60;99.90;;;;;;6038881;23;20377;-75
2023/10/14 00:29:21;;;;;;;8.90;6.20;;;19.60;99.90;;;;;;6063411;23;20381;-77
2023/10/14 00:31:52;;;;;;;12.30;7.33;;;19.60;99.90;;;;;;6013826;23;20370;-76
2023/10/14 00:34:22;;;;;;;8.67;6.23;;;19.60;99.90;;;;;;6033830;23;20874;-77
2023/10/14 00:36:49;;;;;;;11.40;7.63;;;19.70;99.90;;;;;;6012719;23;20418;-75
2023/10/14 00:39:22;;;;;;;15.77;6.37;;;19.70;99.90;;;;;;6059287;23;20449;-75
2023/10/14 00:42:02;;;;;;;13.30;6.70;;;19.70;99.90;;;;;;6080159;23;20392;-76
2023/10/14 00:44:28;;;;;;;14.13;7.77;;;19.70;99.90;;;;;;6059452;23;20422;-74
2023/10/14 00:46:55;;;;;;;9.63;5.73;;;19.70;99.90;;;;;;6064843;23;20366;-77
2023/10/14 00:49:34;;;;;;;13.47;6.70;;;19.70;99.90;;;;;;6042332;23;20187;-75
2023/10/14 00:52:11;;;;;;;9.77;6.83;;;19.60;99.90;;;;;;6045593;23;20426;-76
2023/10/14 00:59:50;;;;;;;10.07;5.77;;;18.90;99.90;;;;;;6116377;23;20397;-74
2023/10/14 01:02:29;;;;;;;8.60;5.37;;;18.80;99.90;;;;;;6032876;23;20382;-74
2023/10/14 01:04:56;;;;;;;9.70;5.90;;;18.80;99.90;;;;;;6033793;23;20430;-75
2023/10/14 01:07:22;;;;;;;5.90;5.07;;;18.70;99.90;;;;;;5985239;23;20450;-75
2023/10/14 01:12:26;;;;;;;7.97;4.80;;;18.80;99.90;;;;;;6053358;23;20164;-75
2023/10/14 01:14:53;;;;;;;7.50;5.23;;;18.80;99.90;;;;;;6023284;23;20431;-77
2023/10/14 01:17:29;;;;;;;8.53;4.70;;;18.90;99.90;;;;;;5999463;23;20384;-76
2023/10/14 01:20:11;;;;;;;9.47;5.20;;;19.00;99.90;;;;;;6025800;23;20391;-77
2023/10/14 01:22:38;;;;;;;8.47;4.73;;;19.00;99.90;;;;;;5999320;23;20390;-77
2023/10/14 01:25:15;;;;;;;4.63;4.10;;;18.90;99.90;;;;;;6021618;23;20399;-76
2023/10/14 01:27:44;;;;;;;7.43;4.57;;;18.90;99.90;;;;;;6007393;23;20418;-74
2023/10/14 01:30:18;;;;;;;8.93;4.53;;;19.00;99.90;;;;;;6021628;23;20399;-75
2023/10/14 01:35:24;;;;;;;8.87;4.50;;;19.00;99.90;;;;;;6051169;23;20438;-75
2023/10/14 01:38:00;;;;;;;5.87;3.60;;;19.10;99.90;;;;;;6052883;23;20502;-76
2023/10/14 01:40:48;;;;;;;8.40;4.00;;;19.00;99.90;;;;;;6026146;23;20370;-75
2023/10/14 01:43:15;;;;;;;7.37;4.03;;;18.70;99.90;;;;;;6048495;23;20692;-75
2023/10/14 01:48:25;;;;;;;6.03;4.00;;;18.10;99.90;;;;;;6084698;23;20373;-75
2023/10/14 01:50:57;;;;;;;5.10;3.53;;;17.70;99.90;;;;;;6104337;23;20461;-73
2023/10/14 01:53:27;;;;;;;6.87;3.50;;;17.40;99.90;;;;;;6082000;23;20412;-75
2023/10/14 01:55:58;;;;;;;6.27;3.43;;;17.20;99.90;;;;;;6058689;23;20503;-74
2023/10/14 01:58:30;;;;;;;5.77;3.20;;;17.10;99.90;;;;;;6080632;23;20386;-74
2023/10/14 02:03:46;;;;;;;5.70;3.23;;;16.80;99.90;;;;;;6104727;23;20404;-75
2023/10/14 02:06:20;;;;;;;6.30;3.10;;;16.80;99.90;;;;;;6104914;23;20395;-75
2023/10/14 02:08:52;;;;;;;6.20;3.30;;;16.70;99.90;;;;;;6082786;23;20368;-77
2023/10/14 02:11:22;;;;;;;5.67;3.17;;;16.70;99.90;;;;;;6081673;23;20380;-74
2023/10/14 02:13:51;;;;;;;5.30;3.37;;;16.70;99.90;;;;;;6080823;23;20439;-74
2023/10/14 02:22:00;;;;;;;3.50;2.90;;;16.60;99.90;;;;;;6107643;23;20370;-76
2023/10/14 02:24:29;;;;;;;6.47;3.30;;;16.60;99.90;;;;;;6060426;23;20414;-75
2023/10/14 02:26:57;;;;;;;5.70;3.10;;;16.70;99.90;;;;;;6059508;23;20385;-74
2023/10/14 02:29:24;;;;;;;3.43;2.90;;;16.60;99.90;;;;;;6106317;23;20395;-75
2023/10/14 02:31:50;;;;;;;5.60;3.10;;;16.60;99.90;;;;;;6105372;23;20385;-76
2023/10/14 02:34:18;;;;;;;27.33;4.30;;;16.70;99.90;;;;;;6076493;23;20481;-73
2023/10/14 02:36:51;;;;;;;6.83;2.70;;;16.70;99.90;;;;;;6074131;23;20376;-72
2023/10/14 02:39:18;;;;;;;2.20;1.67;;;16.60;99.90;;;;;;6098046;23;20684;-72
2023/10/14 02:41:59;;;;;;;2.70;1.43;;;16.20;99.90;;;;;;6075125;23;20672;-73
2023/10/14 02:44:31;;;;;;;1.60;1.10;;;15.70;99.90;;;;;;6074972;23;20406;-74
2023/10/14 02:47:04;;;;;;;1.40;0.90;;;15.30;99.90;;;;;;6077492;23;20378;-73
2023/10/14 02:49:37;;;;;;;1.10;0.90;;;14.90;99.90;;;;;;6077273;23;20409;-73
2023/10/14 02:52:11;;;;;;;1.30;0.93;;;;;;;;;;6076256;23;20454;-71
2023/10/14 02:54:54;;;;;;;1.40;0.80;;;14.50;99.90;;;;;;6076403;23;20433;-73
2023/10/14 02:57:26;;;;;;;1.30;0.70;;;14.40;99.90;;;;;;6075941;23;20452;-72
2023/10/14 02:59:55;;;;;;;1.37;0.90;;;14.30;99.90;;;;;;6098366;23;20404;-72
2023/10/14 03:07:31;;;;;;;3.50;0.90;;;14.10;99.90;;;;;;6076318;23;20804;-74
2023/10/14 03:12:50;;;;;;;1.10;0.70;;;13.90;99.90;;;;;;6099932;23;20374;-74
2023/10/14 03:15:21;;;;;;;0.87;0.57;;;13.90;99.90;;;;;;6077464;23;20463;-75
2023/10/14 03:17:53;;;;;;;1.30;0.80;;;13.80;99.90;;;;;;6077058;23;20373;-75
2023/10/14 03:22:57;;;;;;;1.10;0.80;;;13.80;99.90;;;;;;6076871;23;20408;-75
2023/10/14 03:25:23;;;;;;;0.90;0.70;;;13.70;99.90;;;;;;6077779;23;20570;-75
2023/10/14 03:27:59;;;;;;;1.07;0.70;;;13.70;99.90;;;;;;6101633;23;20400;-74
2023/10/14 03:30:27;;;;;;;0.97;0.70;;;13.70;99.90;;;;;;6078572;23;20382;-75
2023/10/14 03:32:52;;;;;;;1.13;0.67;;;13.70;99.90;;;;;;6078656;23;20373;-75
2023/10/14 03:35:27;;;;;;;1.07;0.70;;;13.70;99.90;;;;;;6077354;23;20432;-76
2023/10/14 03:37:53;;;;;;;1.00;0.70;;;13.80;99.90;;;;;;6079496;23;20136;-76
2023/10/14 03:43:11;;;;;;;1.60;0.90;;;13.80;99.90;;;;;;6081451;23;20362;-76
2023/10/14 03:45:53;;;;;;;1.00;0.80;;;13.80;99.90;;;;;;6081718;23;20377;-75
2023/10/14 03:48:21;;;;;;;1.33;0.63;;;13.80;99.90;;;;;;6060276;23;20389;-76
2023/10/14 03:50:46;;;;;;;3.10;0.93;;;13.80;99.90;;;;;;6082826;23;20377;-76
2023/10/14 03:53:17;;;;;;;1.57;1.20;;;13.80;99.90;;;;;;6081153;23;20495;-76
2023/10/14 03:55:42;;;;;;;1.43;1.07;;;13.60;99.90;;;;;;6055601;23;20432;-76
2023/10/14 03:58:08;;;;;;;1.67;1.10;;;13.50;99.90;;;;;;6056569;23;20469;-75
2023/10/14 04:00:37;;;;;;;1.67;1.10;;;13.30;99.90;;;;;;6056466;23;20144;-76
2023/10/14 04:03:11;;;;;;;2.63;1.37;;;13.20;99.90;;;;;;6079911;23;20226;-75
2023/10/14 04:05:41;;;;;;;3.10;1.40;;;13.00;99.90;;;;;;6079132;23;20395;-76
2023/10/14 04:08:13;;;;;;;2.40;1.20;;;12.90;99.90;;;;;;6078406;23;20534;-75
2023/10/14 04:10:43;;;;;;;2.00;1.67;;;12.90;99.90;;;;;;6078053;23;20452;-75
2023/10/14 04:13:13;;;;;;;7.40;1.73;;;12.80;99.90;;;;;;6076958;23;20381;-75
2023/10/14 04:15:52;;;;;;;8.70;1.70;;;12.70;99.90;;;;;;6081870;23;20416;-76
2023/10/14 04:18:24;;;;;;;4.17;1.60;;;12.40;99.90;;;;;;6080767;23;20892;-76
2023/10/14 04:21:10;;;;;;;2.70;1.63;;;12.20;99.90;;;;;;6104058;23;20515;-76
2023/10/14 04:23:38;;;;;;;6.10;1.60;;;12.00;99.90;;;;;;6055401;23;20671;-75
2023/10/14 04:26:11;;;;;;;2.73;1.30;;;11.90;99.90;;;;;;6077136;23;20366;-75
2023/10/14 04:28:53;;;;;;;5.00;1.70;;;11.70;99.90;;;;;;6052834;23;20819;-77
2023/10/14 04:31:26;;;;;;;3.63;1.57;;;11.70;99.90;;;;;;6051694;23;20392;-75
2023/10/14 04:33:54;;;;;;;5.90;1.87;;;11.60;99.90;;;;;;6076832;23;20434;-74
2023/10/14 04:36:36;;;;;;;4.40;1.57;;;11.60;99.90;;;;;;6076794;23;20489;-76
2023/10/14 04:39:15;;;;;;;2.43;1.37;;;11.50;99.90;;;;;;6099132;23;20379;-75
2023/10/14 04:44:45;;;;;;;2.97;1.10;;;11.40;99.90;;;;;;6065470;23;20445;-76
2023/10/14 04:47:19;;;;;;;2.33;1.33;;;11.50;99.90;;;;;;6077828;23;20470;-74
2023/10/14 04:49:51;;;;;;;2.17;1.30;;;11.50;99.90;;;;;;6076655;23;20462;-73
2023/10/14 04:52:22;;;;;;;2.77;1.40;;;11.50;99.90;;;;;;6099620;23;20388;-74
2023/10/14 04:54:54;;;;;;;2.60;1.40;;;11.60;99.90;;;;;;6077106;23;20431;-75
2023/10/14 04:57:22;;;;;;;1.70;1.23;;;11.60;99.90;;;;;;6076910;23;20448;-75
2023/10/14 04:59:53;;;;;;;1.80;1.07;;;11.60;99.90;;;;;;6054709;23;20373;-75
2023/10/14 05:02:20;;;;;;;1.80;1.20;;;11.60;99.90;;;;;;6075875;23;20374;-73
2023/10/14 05:04:48;;;;;;;1.70;1.30;;;11.70;99.90;;;;;;6075832;23;20454;-74
2023/10/14 05:07:18;;;;;;;1.67;1.00;;;11.60;99.90;;;;;;6076961;23;20373;-74
2023/10/14 05:09:56;;;;;;;4.10;1.63;;;11.60;99.90;;;;;;6100334;23;20374;-74
2023/10/14 05:12:24;;;;;;;4.13;1.40;;;11.60;99.90;;;;;;6077416;23;20488;-75
2023/10/14 05:14:52;;;;;;;1.97;1.47;;;11.50;99.90;;;;;;6077987;23;20413;-75
2023/10/14 05:17:24;;;;;;;4.17;1.60;;;11.50;99.90;;;;;;6079374;23;20366;-74
2023/10/14 05:19:57;;;;;;;3.67;1.80;;;11.50;99.90;;;;;;6077584;23;20362;-75
2023/10/14 05:22:24;;;;;;;4.33;2.03;;;11.50;99.90;;;;;;6080042;23;20362;-76
2023/10/14 05:25:03;;;;;;;3.20;1.57;;;11.50;99.90;;;;;;6033885;23;20405;-73
2023/10/14 05:27:45;;;;;;;5.83;1.93;;;11.50;99.90;;;;;;6079479;23;20365;-75
2023/10/14 05:30:21;;;;;;;3.93;2.03;;;11.50;99.90;;;;;;6079304;23;20408;-74
2023/10/14 05:32:48;;;;;;;5.40;1.90;;;11.50;99.90;;;;;;6082335;23;20373;-75
2023/10/14 05:35:14;;;;;;;4.83;2.57;;;11.40;99.90;;;;;;6082717;23;20432;-76
2023/10/14 05:37:45;;;;;;;3.97;2.37;;;11.40;99.90;;;;;;6082883;23;20412;-76
2023/10/14 05:40:15;;;;;;;8.10;2.90;;;11.20;99.90;;;;;;6035102;23;20389;-74
2023/10/14 05:42:45;;;;;;;12.83;3.20;;;11.20;99.90;;;;;;6056955;23;20670;-74
2023/10/14 05:45:12;;;;;;;6.03;2.63;;;11.10;99.90;;;;;;6080989;23;20822;-76
2023/10/14 05:47:39;;;;;;;7.03;3.30;;;11.00;99.90;;;;;;6083780;23;20373;-76
2023/10/14 05:50:14;;;;;;;5.70;3.20;;;10.90;99.90;;;;;;6081844;23;20389;-74
2023/10/14 05:52:45;;;;;;;9.23;2.83;;;10.80;99.90;;;;;;6083277;23;20465;-74
2023/10/14 05:55:12;;;;;;;15.10;4.03;;;10.80;99.90;;;;;;6058906;23;20437;-75
2023/10/14 05:57:41;;;;;;;17.70;4.83;;;10.70;99.90;;;;;;6081428;23;20440;-76
2023/10/14 06:00:21;;;;;;;12.20;4.83;;;10.70;99.90;;;;;;6103817;23;20794;-76
2023/10/14 06:02:48;;;;;;;28.57;9.77;;;10.70;99.90;;;;;;6080062;23;20663;-76
2023/10/14 06:05:16;;;;;;;23.83;7.13;;;10.70;99.90;;;;;;6084343;23;20409;-74
2023/10/14 06:07:46;;;;;;;9.67;4.13;;;10.70;99.90;;;;;;6084730;23;20373;-74
2023/10/14 06:10:23;;;;;;;9.97;4.43;;;10.70;99.90;;;;;;6105242;23;20723;-76
2023/10/14 06:12:52;;;;;;;80.40;16.57;;;10.60;99.90;;;;;;6083583;23;20441;-78
2023/10/14 06:15:18;;;;;;;49.47;13.20;;;10.60;99.90;;;;;;6008774;23;20438;-74
2023/10/14 06:17:45;;;;;;;17.80;6.90;;;10.60;99.90;;;;;;6010043;23;20393;-76
2023/10/14 06:20:14;;;;;;;24.73;8.33;;;10.60;99.90;;;;;;6032716;23;20363;-75
2023/10/14 06:22:44;;;;;;;13.90;8.33;;;10.60;99.90;;;;;;6009983;23;20363;-75
2023/10/14 06:25:15;;;;;;;16.13;6.27;;;10.60;99.90;;;;;;6013020;23;20398;-76
2023/10/14 06:27:48;;;;;;;43.07;11.63;;;10.60;99.90;;;;;;6013139;23;20473;-76
2023/10/14 06:30:20;;;;;;;32.87;9.63;;;10.60;99.90;;;;;;6038443;23;20374;-75
2023/10/14 06:32:53;;;;;;;34.07;9.13;;;10.60;99.90;;;;;;6030989;23;20482;-74
2023/10/14 06:35:20;;;;;;;55.50;16.53;;;10.60;99.90;;;;;;6029645;23;20457;-75
2023/10/14 06:37:47;;;;;;;56.47;16.67;;;10.70;99.90;;;;;;6006399;23;20371;-76
2023/10/14 06:40:18;;;;;;;30.27;9.23;;;10.80;99.90;;;;;;6030556;23;20387;-75
2023/10/14 06:42:49;;;;;;;23.53;8.30;;;10.80;99.90;;;;;;6030430;23;20402;-75
2023/10/14 06:45:18;;;;;;;18.00;6.80;;;10.80;99.90;;;;;;6008261;23;20402;-76
2023/10/14 06:47:50;;;;;;;27.43;9.87;;;10.80;99.90;;;;;;6008502;23;20367;-76
2023/10/14 06:50:25;;;;;;;44.13;10.40;;;10.80;99.90;;;;;;6032424;23;20406;-76
2023/10/14 06:53:00;;;;;;;19.90;7.17;;;10.80;99.90;;;;;;6011317;23;20397;-75
2023/10/14 06:55:42;;;;;;;27.33;6.73;;;10.80;99.90;;;;;;6056106;23;20449;-76
2023/10/14 06:58:21;;;;;;;17.60;6.30;;;10.80;99.90;;;;;;6035928;23;20390;-76
2023/10/14 07:00:48;;;;;;;13.40;5.20;;;10.80;99.90;;;;;;6064350;23;20409;-76
2023/10/14 07:03:17;;;;;;;23.47;5.27;;;10.80;99.90;;;;;;6064436;23;20398;-76
2023/10/14 07:05:48;;;;;;;18.90;5.10;;;10.80;99.90;;;;;;6064833;23;20407;-75
2023/10/14 07:08:15;;;;;;;17.47;5.90;;;10.70;99.90;;;;;;6087941;23;20406;-78
2023/10/14 07:10:50;;;;;;;24.80;6.10;;;10.70;99.90;;;;;;6065301;23;20370;-77
2023/10/14 07:13:23;;;;;;;22.30;5.90;;;10.70;99.90;;;;;;6088599;23;20412;-77
2023/10/14 07:15:53;;;;;;;17.23;5.80;;;10.60;99.90;;;;;;6088996;23;20418;-77
2023/10/14 07:18:23;;;;;;;22.07;6.27;;;10.60;99.90;;;;;;6063502;23;20369;-76
2023/10/14 07:21:02;;;;;;;19.53;6.20;;;10.50;99.90;;;;;;6063181;23;20374;-75
2023/10/14 07:23:36;;;;;;;19.63;6.17;;;10.60;99.90;;;;;;6088095;23;20385;-76
2023/10/14 07:26:11;;;;;;;13.77;5.33;;;10.60;99.90;;;;;;6089508;23;20381;-77
2023/10/14 07:28:42;;;;;;;15.83;4.53;;;10.50;99.90;;;;;;6087949;23;20373;-76
2023/10/14 07:31:11;;;;;;;23.73;6.00;;;10.50;99.90;;;;;;6089281;23;20377;-76
2023/10/14 07:33:38;;;;;;;21.57;6.57;;;10.50;99.90;;;;;;6006853;23;20411;-77
2023/10/14 07:36:07;;;;;;;21.73;6.27;;;10.60;99.90;;;;;;6007648;23;20422;-76
2023/10/14 07:38:36;;;;;;;8.57;5.17;;;10.60;99.90;;;;;;6005002;23;20461;-76
2023/10/14 07:41:07;;;;;;;11.70;4.93;;;10.60;99.90;;;;;;6027087;23;20376;-75
2023/10/14 07:43:37;;;;;;;9.87;4.40;;;10.70;99.90;;;;;;5981073;23;20407;-77
2023/10/14 07:46:06;;;;;;;19.93;6.60;;;10.80;99.90;;;;;;6008022;23;20401;-75
2023/10/14 07:48:32;;;;;;;12.03;5.40;;;10.80;99.90;;;;;;5983524;23;20407;-75
2023/10/14 07:50:59;;;;;;;14.80;6.03;;;10.80;99.90;;;;;;6029677;23;20356;-76
2023/10/14 07:53:25;;;;;;;20.30;5.97;;;10.80;99.90;;;;;;6005346;23;20419;-76
2023/10/14 07:55:53;;;;;;;13.10;4.63;;;10.80;99.90;;;;;;6029656;23;20177;-75
2023/10/14 07:58:24;;;;;;;19.70;5.60;;;10.90;99.90;;;;;;5981359;23;20162;-76
2023/10/14 08:00:52;;;;;;;15.87;5.70;;;10.90;99.90;;;;;;5983857;23;20433;-79
2023/10/14 08:03:29;;;;;;;15.20;5.60;;;10.80;99.90;;;;;;6004776;23;20395;-76
2023/10/14 08:06:00;;;;;;;22.00;5.50;;;10.80;99.90;;;;;;6063799;23;20692;-76
2023/10/14 08:08:31;;;;;;;27.50;6.60;;;10.80;99.90;;;;;;6087330;23;20384;-78
2023/10/14 08:10:59;;;;;;;16.00;5.60;;;10.70;99.90;;;;;;6040906;23;20464;-75
2023/10/14 08:13:33;;;;;;;22.73;6.60;;;10.70;99.90;;;;;;6088790;23;20405;-76
2023/10/14 08:16:00;;;;;;;18.00;5.87;;;10.70;99.90;;;;;;6087439;23;20557;-75
2023/10/14 08:18:26;;;;;;;12.47;5.10;;;10.60;99.90;;;;;;6086678;23;20362;-75
2023/10/14 08:20:55;;;;;;;12.77;5.40;;;10.50;99.90;;;;;;6086714;23;20362;-77
2023/10/14 08:23:28;;;;;;;27.83;6.97;;;10.50;99.90;;;;;;6064895;23;20428;-77
2023/10/14 08:25:59;;;;;;;27.93;6.93;;;10.50;99.90;;;;;;6066923;23;20369;-78
2023/10/14 08:28:36;;;;;;;22.23;6.17;;;10.50;99.90;;;;;;6064991;23;20370;-76
2023/10/14 08:31:04;;;;;;;19.07;6.40;;;10.50;99.90;;;;;;6044157;23;20405;-77
2023/10/14 08:33:31;;;;;;;26.33;5.50;;;10.60;99.90;;;;;;6090045;23;20409;-76
2023/10/14 08:35:57;;;;;;;28.93;7.67;;;10.70;99.90;;;;;;6088398;23;20414;-77
2023/10/14 08:38:27;;;;;;;31.63;7.10;;;10.80;99.90;;;;;;6088571;23;20357;-77
2023/10/14 08:40:59;;;;;;;29.73;7.40;;;10.70;99.90;;;;;;6088243;23;20145;-77
2023/10/14 08:43:28;;;;;;;25.57;7.10;;;10.60;99.90;;;;;;6089069;23;20401;-77
2023/10/14 08:45:59;;;;;;;32.33;6.90;;;10.60;99.90;;;;;;6065439;23;20648;-78
2023/10/14 08:48:28;;;;;;;21.60;6.77;;;10.50;99.90;;;;;;6066110;23;20393;-76
2023/10/14 08:50:56;;;;;;;27.80;6.10;;;10.40;99.90;;;;;;6087671;23;20386;-76
2023/10/14 08:53:33;;;;;;;23.60;5.90;;;10.40;99.90;;;;;;6088776;23;20417;-77
2023/10/14 08:56:15;;;;;;;27.03;5.43;;;10.60;99.90;;;;;;6091266;23;20449;-78
2023/10/14 08:58:45;;;;;;;27.30;6.50;;;10.80;99.90;;;;;;6094051;23;20377;-77
2023/10/14 09:01:15;;;;;;;21.93;4.70;;;11.00;99.90;;;;;;6113549;23;20393;-76
2023/10/14 09:03:49;;;;;;;30.73;6.60;;;11.20;99.90;;;;;;6088266;23;20458;-78
2023/10/14 09:06:17;;;;;;;22.73;5.27;;;11.40;99.90;;;;;;6088621;23;20357;-76
2023/10/14 09:08:48;;;;;;;20.53;4.00;;;11.60;99.90;;;;;;6064456;23;20394;-76
2023/10/14 09:11:26;;;;;;;18.07;3.60;;;11.70;99.90;;;;;;6089016;23;20372;-77
2023/10/14 09:14:05;;;;;;;11.97;3.40;;;12.00;99.90;;;;;;6087200;23;20397;-79
2023/10/14 09:16:36;;;;;;;13.93;2.93;;;12.40;99.90;;;;;;6064021;23;20493;-76
2023/10/14 09:19:05;;;;;;;14.50;4.00;;;12.50;99.90;;;;;;6112360;23;20377;-76
2023/10/14 09:21:32;;;;;;;14.33;3.70;;;12.70;99.90;;;;;;6089865;23;20385;-76
2023/10/14 09:24:07;;;;;;;8.87;2.73;;;12.90;99.90;;;;;;6090616;23;20385;-77
2023/10/14 09:26:44;;;;;;;14.23;2.80;;;13.10;99.90;;;;;;6093785;23;20393;-76
2023/10/14 09:29:13;;;;;;;11.77;3.70;;;13.40;99.90;;;;;;6069852;23;20370;-77
2023/10/14 09:31:47;;;;;;;7.03;2.60;;;13.50;99.90;;;;;;6092166;23;20373;-76
2023/10/14 09:34:27;;;;;;;9.97;3.10;;;13.70;99.90;;;;;;6093605;23;20401;-78
2023/10/14 09:37:10;;;;;;;11.27;3.23;;;13.70;99.90;;;;;;6064954;23;20401;-79
2023/10/14 09:40:19;;;;;;;6.37;2.63;;;13.70;99.90;;;;;;6021286;23;20371;-79
2023/10/14 09:46:48;;;;;;;16.93;3.03;;;14.00;99.90;;;;;;6119393;23;20462;-78
2023/10/14 09:49:39;;;;;;;12.37;3.47;;;14.00;99.90;;;;;;6121070;23;20400;-76
2023/10/14 09:52:14;;;;;;;8.23;3.80;;;14.10;99.90;;;;;;6072585;23;20389;-77
2023/10/14 09:54:42;;;;;;;10.80;3.90;;;14.10;99.90;;;;;;6095850;23;20423;-77
2023/10/14 09:57:14;;;;;;;20.50;4.53;;;14.20;99.90;;;;;;6070607;23;20380;-77
2023/10/14 09:59:44;;;;;;;9.00;3.27;;;14.30;99.90;;;;;;6121661;23;20383;-77
2023/10/14 10:02:15;;;;;;;10.20;2.87;;;14.10;99.90;;;;;;6122098;23;20413;-78
2023/10/14 10:04:50;;;;;;;8.87;3.20;;;13.90;99.90;;;;;;6073603;23;20480;-77
2023/10/14 10:07:43;;;;;;;10.83;3.10;;;13.70;99.90;;;;;;6100130;23;20456;-78
2023/10/14 10:10:22;;;;;;;9.20;3.53;;;13.50;99.90;;;;;;5932082;24;20380;-78
2023/10/14 10:12:55;;;;;;;8.60;1.93;;;13.40;99.90;;;;;;5930185;24;20404;-78
2023/10/14 10:16:13;;;;;;;8.73;3.97;;;13.40;99.90;;;;;;6179706;23;20460;-77
2023/10/14 10:19:00;;;;;;;11.97;2.77;;;13.40;99.90;;;;;;6184422;23;20389;-79
2023/10/14 10:24:34;;;;;;;13.37;2.87;;;13.60;99.90;;;;;;6097021;23;20443;-77
2023/10/14 10:27:32;;;;;;;8.27;2.73;;;13.80;99.90;;;;;;6079890;23;20389;-79
2023/10/14 10:30:24;;;;;;;14.73;3.27;;;14.20;99.90;;;;;;6100421;23;20390;-78
2023/10/14 10:33:10;;;;;;;12.30;3.87;;;14.40;99.90;;;;;;6067655;23;20507;-79
2023/10/14 10:35:58;;;;;;;8.93;3.10;;;14.50;92.00;;;;;;6093524;23;20437;-77
2023/10/14 10:41:27;;;;;;;12.00;2.80;;;14.80;89.50;;;;;;6143624;23;20458;-77
2023/10/14 10:44:02;;;;;;;7.37;2.20;;;15.00;89.60;;;;;;6095267;23;20407;-75
2023/10/14 10:46:39;;;;;;;8.37;2.40;;;15.20;90.30;;;;;;6120024;23;20388;-76
2023/10/14 10:49:25;;;;;;;11.20;2.90;;;15.40;90.20;;;;;;6076761;23;20424;-79
2023/10/14 10:52:15;;;;;;;11.90;2.77;;;15.60;77.60;;;;;;6079571;23;20377;-78
2023/10/14 10:54:43;;;;;;;8.43;2.67;;;15.80;77.80;;;;;;6073735;23;20433;-77
2023/10/14 10:57:12;;;;;;;12.10;3.13;;;15.70;72.80;;;;;;6098495;23;20369;-78
2023/10/14 10:59:46;;;;;;;10.83;3.10;;;15.60;74.00;;;;;;6017205;23;20394;-77
2023/10/14 11:02:13;;;;;;;10.83;2.53;;;15.50;74.00;;;;;;6017391;23;20454;-78
2023/10/14 11:04:43;;;;;;;8.50;2.00;;;15.70;81.40;;;;;;6039826;23;20399;-77
2023/10/14 11:07:32;;;;;;;12.93;2.40;;;15.90;78.20;;;;;;6029426;23;20401;-78
2023/10/14 11:10:26;;;;;;;12.37;3.03;;;16.00;69.60;;;;;;6073154;23;20475;-77
2023/10/14 11:40:29;;;;;;;9.73;1.90;;;14.50;68.90;;;;;;6178252;23;20441;-78
2023/10/14 11:43:05;;;;;;;11.83;2.67;;;14.60;69.20;;;;;;6088514;23;20371;-79
2023/10/14 11:45:32;;;;;;;7.53;2.10;;;14.80;69.50;;;;;;6156780;23;20359;-79
2023/10/14 11:48:01;;;;;;;8.03;2.27;;;14.80;70.40;;;;;;6116720;23;20444;-77
2023/10/14 11:51:03;;;;;;;8.13;2.87;;;14.90;67.50;;;;;;6088948;23;20428;-78
2023/10/14 12:20:22;;;;;;;7.57;3.17;;;15.10;67.20;;;;;;6145609;23;20444;-80
2023/10/14 12:23:20;;;;;;;7.57;2.47;;;15.30;65.20;;;;;;6121170;23;20444;-78
2023/10/14 12:26:00;;;;;;;9.60;2.10;;;15.30;66.70;;;;;;6099437;23;20408;-78
2023/10/14 12:29:12;;;;;;;7.73;3.20;;;15.30;63.20;;;;;;6101751;23;20507;-79
2023/10/14 12:31:44;;;;;;;5.53;1.97;;;15.20;60.30;;;;;;6094210;23;20398;-79
2023/10/14 12:49:06;;;;;;;13.83;2.63;;;15.10;58.70;;;;;;6120765;23;20431;-79
2023/10/14 12:52:19;;;;;;;10.73;2.57;;;15.30;58.30;;;;;;6097198;23;20366;-77
2023/10/14 13:52:32;;;;;;;4.00;1.80;;;15.20;54.50;;;;;;6091282;23;20512;31
2023/10/14 13:55:34;;;;;;;4.97;1.70;;;15.10;54.80;;;;;;6089843;23;20451;31
2023/10/14 13:58:37;;;;;;;5.90;1.73;;;15.20;54.40;;;;;;6067170;23;20758;31
2023/10/14 14:07:45;;;;;;;7.47;2.67;;;15.50;55.20;;;;;;6149405;23;20442;-79
2023/10/14 14:30:37;;;;;;;7.23;3.10;;;15.30;58.40;;;;;;6151128;23;20450;-79
2023/10/14 14:33:09;;;;;;;9.17;2.77;;;15.20;59.20;;;;;;6104588;23;20480;-78
2023/10/14 14:39:02;;;;;;;8.00;2.53;;;15.10;59.80;;;;;;6138920;23;20431;-78
2023/10/14 14:41:30;;;;;;;7.70;2.53;;;15.20;60.00;;;;;;6153374;23;20389;-78
2023/10/14 14:44:09;;;;;;;5.97;2.00;;;15.10;60.70;;;;;;6045288;23;20441;-78
2023/10/14 14:46:37;;;;;;;7.33;2.47;;;15.00;61.10;;;;;;6025699;23;20409;-78
2023/10/14 14:49:11;;;;;;;5.87;2.50;;;14.90;62.00;;;;;;6094524;23;20394;-78
2023/10/14 14:51:40;;;;;;;7.53;2.33;;;14.90;62.50;;;;;;6047675;23;20374;-78
2023/10/14 14:54:12;;;;;;;7.80;2.13;;;14.80;62.40;;;;;;6068470;23;20400;-79
2023/10/14 14:59:55;;;;;;;4.60;2.20;;;14.70;61.40;;;;;;6143984;23;20446;-78
2023/10/14 15:05:36;;;;;;;8.80;2.37;;;14.70;59.90;;;;;;6096022;23;20455;-78
2023/10/14 15:08:13;;;;;;;6.57;2.30;;;14.60;59.70;;;;;;6078291;23;20368;-80
2023/10/14 15:10:47;;;;;;;4.30;2.07;;;14.60;59.70;;;;;;6053934;23;20388;-79
2023/10/14 15:19:07;;;;;;;5.83;1.90;;;13.60;65.90;;;;;;6114589;23;20495;-77
2023/10/14 15:31:00;;;;;;;4.83;1.50;;;12.20;71.50;;;;;;6145899;23;20470;-78
2023/10/14 15:33:26;;;;;;;6.27;2.97;;;12.20;73.00;;;;;;6105236;23;20471;-79
2023/10/14 15:38:58;;;;;;;5.37;2.20;;;12.20;73.80;;;;;;6179194;23;20477;-79
2023/10/14 15:41:26;;;;;;;5.10;1.70;;;12.20;73.80;;;;;;6156848;23;20412;-79
2023/10/14 16:31:13;;;;;;;3.50;1.40;;;11.60;85.60;;;;;;6105538;23;20535;-78
2023/10/14 16:36:59;;;;;;;6.40;3.17;;;11.60;87.10;;;;;;6130609;23;20454;-78
2023/10/14 16:59:16;;;;;;;5.53;2.80;;;10.70;99.90;;;;;;6141546;23;20473;-77
2023/10/14 17:02:10;;;;;;;7.10;2.63;;;10.50;99.90;;;;;;6108849;23;20446;-78
2023/10/14 19:24:56;;;;;;;9.40;3.60;;;10.10;99.90;;;;;;6122435;23;20506;-78
2023/10/14 19:27:23;;;;;;;8.93;3.50;;;10.00;99.90;;;;;;6095918;23;20419;-78
2023/10/14 19:56:34;;;;;;;9.30;2.93;;;9.50;99.90;;;;;;6117904;23;20452;-78
2023/10/14 19:59:24;;;;;;;7.20;3.20;;;9.50;99.90;;;;;;6124783;23;20396;-77
2023/10/14 20:02:12;;;;;;;8.20;3.23;;;9.50;99.90;;;;;;6102613;23;20440;-78
2023/10/14 20:37:30;;;;;;;6.90;1.80;;;9.10;99.90;;;;;;6126281;23;20438;-79
2023/10/14 20:40:07;;;;;;;6.03;2.20;;;9.00;99.90;;;;;;6153480;23;20376;-77
2023/10/14 20:51:31;;;;;;;4.53;2.00;;;8.80;99.90;;;;;;6106975;23;20444;-78
2023/10/14 20:54:00;;;;;;;7.30;2.47;;;8.80;99.90;;;;;;6124457;23;20392;-77
2023/10/14 21:02:25;;;;;;;5.37;1.70;;;8.80;99.90;;;;;;6143292;23;20438;-78
2023/10/14 21:21:25;;;;;;;3.37;1.90;;;8.40;99.90;;;;;;6166656;23;20461;-78
2023/10/14 21:54:17;;;;;;;4.53;1.93;;;8.00;99.90;;;;;;6127272;23;20465;-78
2023/10/14 21:56:44;;;;;;;5.30;2.27;;;7.90;99.90;;;;;;6082950;23;20447;-77
2023/10/14 21:59:13;;;;;;;4.33;1.77;;;7.90;99.90;;;;;;6151795;23;20375;-78
2023/10/14 22:04:15;;;;;;;5.93;2.30;;;7.80;99.90;;;;;;6107521;23;20447;-78
2023/10/14 22:06:47;;;;;;;6.90;3.00;;;7.80;99.90;;;;;;6074621;23;20539;-77
2023/10/14 22:09:18;;;;;;;3.77;1.90;;;7.80;99.90;;;;;;6100196;23;20385;-77
2023/10/14 22:12:04;;;;;;;5.23;2.63;;;7.80;99.90;;;;;;6034039;23;20391;-78
2023/10/14 22:14:30;;;;;;;5.37;1.87;;;7.80;99.90;;;;;;6011448;23;20419;-77
2023/10/14 22:16:57;;;;;;;6.00;2.10;;;7.70;99.90;;;;;;6013007;23;20412;-78
2023/10/14 22:19:27;;;;;;;4.83;3.00;;;7.70;99.90;;;;;;5990052;23;20427;-78
2023/10/14 22:22:01;;;;;;;5.30;1.97;;;7.70;99.90;;;;;;5988915;23;20419;-78
2023/10/14 22:24:32;;;;;;;6.10;2.17;;;7.70;99.90;;;;;;6013597;23;20422;-77
2023/10/14 22:27:04;;;;;;;4.40;1.93;;;7.70;99.90;;;;;;6036587;23;20391;-78
2023/10/14 22:29:30;;;;;;;5.87;2.60;;;7.70;99.90;;;;;;6011468;23;20383;-77
2023/10/14 22:31:57;;;;;;;5.83;2.43;;;7.70;99.90;;;;;;6036339;23;20460;-77
2023/10/14 22:34:48;;;;;;;4.60;2.80;;;7.60;99.90;;;;;;6012432;23;20419;-77
2023/10/14 22:37:14;;;;;;;6.40;2.70;;;7.60;99.90;;;;;;6011710;23;20175;-77